Monticello, Utah
Current Conditions -  °F | °C
As of 2:15 AM on Wednesday 22 Oct 2014 (Local Time) from KBDG Reporting Station
Clear Clear  
Wind Chill: 44°   Ceiling: Unl
Heat Index: 47°   Visibility: 10mi
Dew Point: 39°   Wind: 7mph
Humidity: 74%   Direction: 30°NNE
Pressure: 30.15"   Gusts: NA
Location:  37.87°N, 109.34°W
Report Text: KBDG 220815Z AUTO 03006KT 10SM CLR 09/04 A3015 RMK AO1 T00850041
Loading
Personal Weather Stations






























Interactive Weather Map
Tropical Storm Tracking
New forecast layout! Learn more

10-Day Weather Forecast

Advertisements
Track Severe Weather on mobile